createdAt,value
2023-01-04T00:01:25.587Z,100781.94
2023-01-04T00:08:17.033Z,100786.66
2023-01-04T00:10:19.144Z,100790.22
2023-01-04T00:12:21.089Z,100795.59
2023-01-04T00:14:23.054Z,100795.59
2023-01-04T00:16:28.086Z,100801.84
2023-01-04T00:18:31.537Z,100796.41
2023-01-04T00:20:34.023Z,100796.34
2023-01-04T00:22:37.005Z,100799.09
2023-01-04T00:24:39.201Z,100792.78
2023-01-04T00:26:42.159Z,100799.88
2023-01-04T00:28:49.988Z,100814.25
2023-01-04T00:30:55.988Z,100806.19
2023-01-04T00:32:59.059Z,100805.31
2023-01-04T00:35:01.350Z,100806.19
2023-01-04T00:37:03.538Z,100809.03
2023-01-04T00:39:10.305Z,100812.59
2023-01-04T00:41:41.999Z,100809.84
2023-01-04T00:43:35.816Z,100811.84
2023-01-04T00:45:38.389Z,100812.59
2023-01-04T00:47:40.635Z,100815.31
2023-01-04T00:49:42.972Z,100815.31
2023-01-04T00:51:45.194Z,100826.09
2023-01-04T00:53:47.299Z,100829.72
2023-01-04T00:55:50.159Z,100831.59
2023-01-04T00:57:52.447Z,100835.13
2023-01-04T00:59:54.481Z,100836.91
2023-01-04T01:01:56.922Z,100835.91
2023-01-04T01:04:02.641Z,100828.75
2023-01-04T01:06:07.256Z,100842.09
2023-01-04T01:08:26.136Z,100842.16
2023-01-04T01:10:28.706Z,100845.69
2023-01-04T01:12:31.123Z,100843.00
2023-01-04T01:14:33.591Z,100840.31
2023-01-04T01:16:54.213Z,100842.97
2023-01-04T01:18:57.825Z,100844.78
2023-01-04T01:21:00.329Z,100834.97
2023-01-04T01:23:02.601Z,100842.19
2023-01-04T01:25:05.307Z,100843.06
2023-01-04T01:27:07.587Z,100845.72
2023-01-04T01:29:09.729Z,100842.97
2023-01-04T01:31:15.846Z,100853.78
2023-01-04T01:33:18.108Z,100853.72
2023-01-04T01:35:22.180Z,100851.94
2023-01-04T01:37:24.265Z,100859.16
2023-01-04T01:39:26.378Z,100853.78
2023-01-04T01:41:31.091Z,100855.63
2023-01-04T01:43:57.626Z,100851.16
2023-01-04T01:45:59.815Z,100844.81
2023-01-04T01:48:07.431Z,100842.19
2023-01-04T01:50:26.144Z,100843.06
2023-01-04T01:52:33.143Z,100839.53
2023-01-04T01:54:46.546Z,100842.34
2023-01-04T01:56:51.554Z,100842.28
2023-01-04T01:58:59.232Z,100837.72
2023-01-04T02:01:02.137Z,100837.78
2023-01-04T02:03:36.265Z,100835.25
2023-01-04T02:05:39.331Z,100836.00
2023-01-04T02:07:42.263Z,100839.53
2023-01-04T02:09:45.548Z,100836.84
2023-01-04T02:11:47.701Z,100837.75
2023-01-04T02:14:09.392Z,100847.59
2023-01-04T02:16:20.617Z,100848.59
2023-01-04T02:18:33.621Z,100846.84
2023-01-04T02:20:44.971Z,100840.47
2023-01-04T02:23:44.120Z,100837.84
2023-01-04T02:25:58.109Z,100836.84
2023-01-04T02:28:29.889Z,100833.38
2023-01-04T02:30:44.371Z,100841.44
2023-01-04T02:33:08.182Z,100842.34
2023-01-04T02:35:25.829Z,100832.53
2023-01-04T02:37:52.152Z,100831.59
2023-01-04T02:40:03.057Z,100827.22
2023-01-04T02:42:10.899Z,100837.91
2023-01-04T02:44:40.074Z,100831.66
2023-01-04T02:46:50.920Z,100826.28
2023-01-04T02:49:17.048Z,100834.31
2023-01-04T02:51:34.917Z,100832.66
2023-01-04T02:53:40.269Z,100836.16
2023-01-04T02:55:48.184Z,100845.09
2023-01-04T02:58:08.135Z,100846.84
2023-01-04T03:01:07.926Z,100838.03
2023-01-04T03:03:47.115Z,100829.91
2023-01-04T03:06:16.817Z,100828.16
2023-01-04T03:08:44.113Z,100821.03
2023-01-04T03:11:31.441Z,100821.09
2023-01-04T03:13:42.842Z,100811.16
2023-01-04T03:15:52.865Z,100813.84
2023-01-04T03:17:58.958Z,100815.59
2023-01-04T03:20:01.912Z,100819.22
2023-01-04T03:22:06.254Z,100825.47
2023-01-04T03:24:29.221Z,100820.16
2023-01-04T03:26:54.980Z,100820.09
2023-01-04T03:29:22.787Z,100829.91
2023-01-04T03:31:53.372Z,100822.84
2023-01-04T03:34:14.411Z,100827.22
2023-01-04T03:36:43.966Z,100830.03
2023-01-04T03:39:20.501Z,100832.59
2023-01-04T03:42:06.529Z,100819.22
2023-01-04T03:44:39.223Z,100818.28
2023-01-04T03:47:15.347Z,100824.53
2023-01-04T03:49:23.666Z,100809.34
2023-01-04T03:51:36.101Z,100820.16
2023-01-04T03:53:56.151Z,100809.47
2023-01-04T03:56:00.161Z,100809.44
2023-01-04T03:58:05.547Z,100807.59
2023-01-04T04:00:14.970Z,100808.53
2023-01-04T04:02:22.697Z,100813.94
2023-01-04T04:04:43.545Z,100807.63
2023-01-04T04:07:03.975Z,100805.00
2023-01-04T04:09:08.040Z,100810.44
2023-01-04T04:11:29.078Z,100815.72
2023-01-04T04:13:34.178Z,100826.50
2023-01-04T04:15:37.029Z,100827.44
2023-01-04T04:17:39.444Z,100831.84
2023-01-04T04:19:41.611Z,100834.53
2023-01-04T04:21:43.987Z,100836.22
2023-01-04T04:23:46.583Z,100843.41
2023-01-04T04:25:51.953Z,100845.22
2023-01-04T04:27:54.325Z,100838.09
2023-01-04T04:29:57.096Z,100844.38
2023-01-04T04:31:59.651Z,100837.16
2023-01-04T04:34:02.232Z,100845.28
2023-01-04T04:36:05.155Z,100838.97
2023-01-04T04:38:07.491Z,100838.03
2023-01-04T04:40:30.632Z,100838.03
2023-01-04T04:42:32.767Z,100834.53
2023-01-04T04:44:35.709Z,100843.44
2023-01-04T04:46:38.718Z,100833.66
2023-01-04T04:48:41.593Z,100841.66
2023-01-04T04:50:43.958Z,100842.50
2023-01-04T04:52:50.976Z,100842.50
2023-01-04T04:54:56.483Z,100832.59
2023-01-04T04:56:58.671Z,100829.03
2023-01-04T04:59:01.167Z,100830.84
2023-01-04T05:01:03.565Z,100833.59
2023-01-04T05:03:05.956Z,100839.94
2023-01-04T05:05:08.768Z,100832.78
2023-01-04T05:07:12.757Z,100835.41
2023-01-04T05:09:15.538Z,100841.66
2023-01-04T05:11:37.983Z,100831.78
2023-01-04T05:13:40.508Z,100836.28
2023-01-04T05:15:48.367Z,100826.47
2023-01-04T05:17:50.766Z,100838.09
2023-01-04T05:19:52.977Z,100837.16
2023-01-04T05:21:55.092Z,100838.91
2023-01-04T05:23:57.315Z,100837.16
2023-01-04T05:26:02.129Z,100838.97
2023-01-04T05:28:04.704Z,100841.66
2023-01-04T05:30:25.781Z,100838.97
2023-01-04T05:32:28.160Z,100844.34
2023-01-04T05:34:30.706Z,100846.16
2023-01-04T05:36:32.968Z,100839.84
2023-01-04T05:38:38.876Z,100848.84
2023-01-04T05:40:41.500Z,100846.97
2023-01-04T05:42:44.188Z,100846.09
2023-01-04T05:44:46.468Z,100846.97
2023-01-04T05:46:48.664Z,100851.47
2023-01-04T05:48:51.199Z,100849.72
2023-01-04T05:50:53.941Z,100852.47
2023-01-04T05:53:21.746Z,100854.31
2023-01-04T05:55:24.416Z,100855.16
2023-01-04T05:57:27.173Z,100854.34
2023-01-04T05:59:29.356Z,100852.56
2023-01-04T06:01:32.208Z,100861.50
2023-01-04T06:03:34.779Z,100843.56
2023-01-04T06:05:37.447Z,100848.97
2023-01-04T06:07:40.937Z,100849.03
2023-01-04T06:09:43.545Z,100852.66
2023-01-04T06:11:46.027Z,100854.41
2023-01-04T06:13:48.366Z,100857.97
2023-01-04T06:15:50.965Z,100851.72
2023-01-04T06:17:53.224Z,100859.78
2023-01-04T06:19:55.681Z,100860.78
2023-01-04T06:21:58.578Z,100858.97
2023-01-04T06:24:01.156Z,100875.31
2023-01-04T06:26:03.326Z,100869.94
2023-01-04T06:28:08.325Z,100875.31
2023-01-04T06:30:13.695Z,100873.59
2023-01-04T06:32:16.208Z,100874.63
2023-01-04T06:34:18.466Z,100882.66
2023-01-04T06:36:21.036Z,100880.06
2023-01-04T06:38:23.458Z,100882.75
2023-01-04T06:40:26.047Z,100889.97
2023-01-04T06:42:46.465Z,100892.66
2023-01-04T06:44:48.888Z,100897.09
2023-01-04T06:46:51.462Z,100899.78
2023-01-04T06:48:55.288Z,100895.28
2023-01-04T06:51:00.135Z,100897.97
2023-01-04T06:53:02.410Z,100901.63
2023-01-04T06:55:06.085Z,100895.34
2023-01-04T06:57:08.663Z,100906.13
2023-01-04T06:59:11.420Z,100898.03
2023-01-04T07:01:13.784Z,100907.88
2023-01-04T07:03:16.550Z,100915.06
2023-01-04T07:05:19.172Z,100908.75
2023-01-04T07:07:24.253Z,100912.41
2023-01-04T07:09:26.737Z,100915.13
2023-01-04T07:11:29.052Z,100916.03
2023-01-04T07:13:31.688Z,100922.31
2023-01-04T07:15:39.220Z,100927.59
2023-01-04T07:17:42.788Z,100923.09
2023-01-04T07:19:45.131Z,100924.97
2023-01-04T07:21:47.356Z,100922.31
2023-01-04T07:23:49.569Z,100937.50
2023-01-04T07:25:55.047Z,100934.84
2023-01-04T07:27:57.507Z,100928.59
2023-01-04T07:29:59.705Z,100933.03
2023-01-04T07:32:02.216Z,100933.00
2023-01-04T07:34:04.654Z,100939.28
2023-01-04T07:36:07.448Z,100932.09
2023-01-04T07:38:09.823Z,100935.63
2023-01-04T07:40:12.462Z,100940.22
2023-01-04T07:42:16.694Z,100939.19
2023-01-04T07:44:18.864Z,100941.88
2023-01-04T07:46:22.423Z,100937.34
2023-01-04T07:48:24.704Z,100937.34
2023-01-04T07:50:26.994Z,100935.59
2023-01-04T07:52:29.196Z,100943.66
2023-01-04T07:54:31.813Z,100942.72
2023-01-04T07:56:33.884Z,100941.78
2023-01-04T07:58:36.747Z,100943.56
2023-01-04T08:00:38.980Z,100940.81
2023-01-04T08:02:41.132Z,100938.13
2023-01-04T08:04:46.272Z,100945.31
2023-01-04T08:06:48.750Z,100946.19
2023-01-04T08:08:50.977Z,100949.78
2023-01-04T08:10:53.094Z,100947.16
2023-01-04T08:13:03.555Z,100962.34
2023-01-04T08:15:06.732Z,100951.66
2023-01-04T08:17:10.419Z,100952.53
2023-01-04T08:19:13.997Z,100954.28
2023-01-04T08:21:16.498Z,100940.78
2023-01-04T08:23:22.018Z,100945.25
2023-01-04T08:25:24.454Z,100957.72
2023-01-04T08:27:26.669Z,100950.59
2023-01-04T08:29:34.611Z,100945.25
2023-01-04T08:31:37.561Z,100942.56
2023-01-04T08:33:40.309Z,100947.91
2023-01-04T08:35:43.847Z,100944.28
2023-01-04T08:37:46.192Z,100946.97
2023-01-04T08:39:49.525Z,100943.31
2023-01-04T08:42:02.129Z,100947.78
2023-01-04T08:44:10.241Z,100939.75
2023-01-04T08:46:14.204Z,100937.06
2023-01-04T08:48:22.611Z,100934.31
2023-01-04T08:50:26.566Z,100931.69
2023-01-04T08:52:28.932Z,100929.88
2023-01-04T08:54:31.162Z,100925.38
2023-01-04T08:56:33.393Z,100928.09
2023-01-04T08:58:37.559Z,100924.47
2023-01-04T09:00:41.583Z,100932.50
2023-01-04T09:02:43.952Z,100925.22
2023-01-04T09:04:46.123Z,100929.78
2023-01-04T09:06:49.026Z,100930.66
2023-01-04T09:08:51.602Z,100931.56
2023-01-04T09:10:56.284Z,100917.22
2023-01-04T09:12:58.484Z,100922.53
2023-01-04T09:15:00.723Z,100917.13
2023-01-04T09:17:02.980Z,100910.00
2023-01-04T09:19:06.888Z,100919.81
2023-01-04T09:21:11.347Z,100915.31
2023-01-04T09:23:13.670Z,100908.94
2023-01-04T09:25:15.916Z,100907.19
2023-01-04T09:27:20.496Z,100907.16
2023-01-04T09:29:24.691Z,100907.13
2023-01-04T09:31:28.655Z,100899.94
2023-01-04T09:34:04.000Z,100899.09
2023-01-04T09:36:00.639Z,100890.06
2023-01-04T09:38:03.159Z,100886.44
2023-01-04T09:40:05.742Z,100885.50
2023-01-04T09:42:35.069Z,100883.75
2023-01-04T09:45:21.879Z,100880.94
2023-01-04T09:47:22.861Z,100879.25
2023-01-04T09:49:32.958Z,100877.47
2023-01-04T09:51:39.006Z,100874.63
2023-01-04T09:53:46.640Z,100876.44
2023-01-04T09:55:52.876Z,100877.31
2023-01-04T09:58:34.316Z,100875.56
2023-01-04T10:00:45.235Z,100873.72
2023-01-04T10:03:02.322Z,100874.59
2023-01-04T10:05:07.413Z,100870.06
2023-01-04T10:07:21.714Z,100858.47
2023-01-04T10:09:24.284Z,100870.91
2023-01-04T10:11:28.880Z,100865.47
2023-01-04T10:13:33.853Z,100855.50
2023-01-04T10:15:51.905Z,100854.69
2023-01-04T10:19:28.704Z,100858.28
2023-01-04T10:21:31.492Z,100860.09
2023-01-04T10:23:53.762Z,100851.91
2023-01-04T10:26:18.188Z,100859.06
2023-01-04T10:28:42.936Z,100855.44
2023-01-04T10:30:55.021Z,100866.97
2023-01-04T10:33:12.788Z,100867.06
2023-01-04T10:35:21.827Z,100863.53
2023-01-04T10:37:37.632Z,100864.47
2023-01-04T10:39:40.552Z,100871.50
2023-01-04T10:41:50.941Z,100872.50
2023-01-04T10:44:10.837Z,100868.19
2023-01-04T10:46:43.284Z,100875.38
2023-01-04T10:48:55.718Z,100871.66
2023-01-04T10:51:07.049Z,100866.25
2023-01-04T10:53:23.815Z,100862.75
2023-01-04T10:55:32.434Z,100859.03
2023-01-04T10:57:41.195Z,100864.41
2023-01-04T10:59:52.506Z,100857.22
2023-01-04T11:02:01.070Z,100862.56
2023-01-04T11:04:10.757Z,100859.84
2023-01-04T11:06:34.143Z,100861.59
2023-01-04T11:08:47.660Z,100865.19
2023-01-04T11:11:06.247Z,100866.13
2023-01-04T11:13:08.304Z,100872.25
2023-01-04T11:15:10.843Z,100871.31
2023-01-04T11:17:14.358Z,100869.44
2023-01-04T11:19:16.728Z,100866.69
2023-01-04T11:21:24.034Z,100870.22
2023-01-04T11:23:26.116Z,100862.03
2023-01-04T11:25:37.240Z,100867.34
2023-01-04T11:27:51.010Z,100857.50
2023-01-04T11:29:59.218Z,100856.59
2023-01-04T11:32:07.130Z,100859.25
2023-01-04T11:34:09.291Z,100857.44
2023-01-04T11:36:31.228Z,100861.16
2023-01-04T11:38:33.566Z,100857.38
2023-01-04T11:40:36.056Z,100861.81
2023-01-04T11:42:38.199Z,100859.84
2023-01-04T11:44:42.104Z,100859.91
2023-01-04T11:46:44.442Z,100858.03
2023-01-04T11:48:48.744Z,100860.78
2023-01-04T11:50:56.071Z,100853.59
2023-01-04T11:52:58.031Z,100849.94
2023-01-04T11:55:25.831Z,100841.09
2023-01-04T11:57:28.066Z,100839.13
2023-01-04T11:59:30.158Z,100839.06
2023-01-04T12:09:31.427Z,100816.63
2023-01-04T12:11:40.208Z,100816.72
2023-01-04T12:13:42.331Z,100814.88
2023-01-04T12:15:50.354Z,100817.59
2023-01-04T12:18:22.649Z,100822.03
2023-01-04T12:20:28.979Z,100826.63
2023-01-04T12:22:39.221Z,100824.88
2023-01-04T12:24:45.592Z,100830.16
2023-01-04T12:26:48.854Z,100832.78
2023-01-04T12:29:12.764Z,100838.16
2023-01-04T12:31:21.458Z,100836.31
2023-01-04T12:33:33.090Z,100831.03
2023-01-04T12:36:04.989Z,100820.34
2023-01-04T12:38:09.651Z,100809.47
2023-01-04T12:40:45.556Z,100813.00
2023-01-04T12:43:16.703Z,100823.13
2023-01-04T12:45:22.159Z,100823.03
2023-01-04T12:47:45.944Z,100816.78
2023-01-04T12:49:56.843Z,100816.78
2023-01-04T12:55:04.830Z,100795.44
2023-01-04T12:57:16.856Z,100794.44
2023-01-04T12:59:51.997Z,100795.34
2023-01-04T13:02:16.854Z,100793.47
2023-01-04T13:04:39.205Z,100788.16
2023-01-04T13:06:46.098Z,100791.72
2023-01-04T13:08:51.631Z,100785.38
2023-01-04T13:10:55.954Z,100790.94
2023-01-04T13:13:01.527Z,100780.19
2023-01-04T13:15:17.595Z,100771.22
2023-01-04T13:17:24.045Z,100778.25
2023-01-04T13:19:28.888Z,100780.97
2023-01-04T13:21:43.017Z,100777.41
2023-01-04T13:24:00.860Z,100779.31
2023-01-04T13:26:42.893Z,100782.06
2023-01-04T13:28:45.337Z,100779.16
2023-01-04T13:30:47.618Z,100781.88
2023-01-04T13:33:24.397Z,100782.78
2023-01-04T13:35:15.258Z,100776.63
2023-01-04T13:37:28.335Z,100795.44
2023-01-04T13:39:30.749Z,100791.81
2023-01-04T13:41:33.123Z,100790.94
2023-01-04T13:43:41.548Z,100786.56
2023-01-04T13:45:50.049Z,100783.97
2023-01-04T13:47:56.884Z,100783.97
2023-01-04T13:50:01.741Z,100780.41
2023-01-04T13:52:56.433Z,100785.19
2023-01-04T13:55:23.228Z,100782.34
2023-01-04T13:57:25.601Z,100783.97
2023-01-04T13:59:27.666Z,100780.50
2023-01-04T14:01:31.259Z,100779.69
2023-01-04T14:03:41.808Z,100771.47
2023-01-04T14:05:52.251Z,100774.22
2023-01-04T14:07:54.666Z,100780.50
2023-01-04T14:10:00.733Z,100775.28
2023-01-04T14:12:14.824Z,100772.56
2023-01-04T14:15:03.966Z,100777.97
2023-01-04T14:17:34.396Z,100778.09
2023-01-04T14:19:41.577Z,100780.78
2023-01-04T14:21:43.680Z,100769.97
2023-01-04T14:23:46.061Z,100779.75
2023-01-04T14:25:56.496Z,100773.66
2023-01-04T14:28:44.623Z,100775.53
2023-01-04T14:31:15.003Z,100775.56
2023-01-04T14:33:33.045Z,100775.56
2023-01-04T14:35:38.337Z,100772.88
2023-01-04T14:37:43.956Z,100770.16
2023-01-04T14:39:46.137Z,100775.47
2023-01-04T14:41:51.801Z,100771.94
2023-01-04T14:44:09.713Z,100771.91
2023-01-04T14:46:11.694Z,100772.59
2023-01-04T14:48:16.135Z,100770.03
2023-01-04T14:50:24.360Z,100765.50
2023-01-04T14:52:26.440Z,100760.09
2023-01-04T14:54:30.346Z,100752.03
2023-01-04T14:56:33.529Z,100752.94
2023-01-04T14:58:35.784Z,100747.50
2023-01-04T15:00:38.183Z,100753.75
2023-01-04T15:02:40.617Z,100760.09
2023-01-04T15:04:42.909Z,100759.25
2023-01-04T15:06:54.331Z,100756.66
2023-01-04T15:08:56.315Z,100748.53
2023-01-04T15:11:00.383Z,100753.97
2023-01-04T15:13:04.489Z,100763.84
2023-01-04T15:15:07.255Z,100762.09
2023-01-04T15:17:10.464Z,100751.38
2023-01-04T15:19:12.821Z,100753.97
2023-01-04T15:21:15.327Z,100756.75
2023-01-04T15:23:17.442Z,100753.97
2023-01-04T15:25:19.542Z,100745.97
2023-01-04T15:27:24.446Z,100728.09
2023-01-04T15:29:31.104Z,100731.75
2023-01-04T15:31:38.931Z,100739.81
2023-01-04T15:33:42.116Z,100740.59
2023-01-04T15:35:43.959Z,100736.19
2023-01-04T15:37:47.008Z,100730.78
2023-01-04T15:39:49.102Z,100741.63
2023-01-04T15:42:09.820Z,100744.38
2023-01-04T15:44:12.081Z,100735.44
2023-01-04T15:46:16.996Z,100737.22
2023-01-04T15:49:22.566Z,100732.75
2023-01-04T15:51:25.026Z,100748.69
2023-01-04T15:53:53.123Z,100740.75
2023-01-04T15:55:55.495Z,100736.03
2023-01-04T15:57:57.549Z,100738.78
2023-01-04T15:59:59.672Z,100729.78
2023-01-04T16:02:01.870Z,100739.75
2023-01-04T16:04:06.801Z,100733.50
2023-01-04T16:06:12.065Z,100734.44
2023-01-04T16:08:14.351Z,100723.69
2023-01-04T16:10:16.677Z,100729.03
2023-01-04T16:12:37.663Z,100721.84
2023-01-04T16:14:39.693Z,100726.44
2023-01-04T16:16:41.640Z,100722.16
2023-01-04T16:18:52.580Z,100724.03
2023-01-04T16:20:54.496Z,100730.22
2023-01-04T16:22:56.467Z,100727.53
2023-01-04T16:25:13.734Z,100723.03
2023-01-04T16:27:16.038Z,100728.41
2023-01-04T16:29:19.711Z,100725.63
2023-01-04T16:31:22.881Z,100721.28
2023-01-04T16:33:25.074Z,100720.38
2023-01-04T16:35:27.110Z,100721.31
2023-01-04T16:37:30.670Z,100710.53
2023-01-04T16:41:54.995Z,100715.19
2023-01-04T16:44:01.151Z,100715.19
2023-01-04T16:46:26.770Z,100717.06
2023-01-04T16:48:28.806Z,100712.47
2023-01-04T16:50:31.088Z,100712.44
2023-01-04T16:52:33.069Z,100703.44
2023-01-04T16:54:37.179Z,100702.56
2023-01-04T16:56:40.137Z,100699.94
2023-01-04T16:58:45.455Z,100698.25
2023-01-04T17:00:47.515Z,100707.19
2023-01-04T17:02:49.821Z,100703.72
2023-01-04T17:04:57.144Z,100700.97
2023-01-04T17:06:59.396Z,100694.72
2023-01-04T17:09:03.488Z,100697.34
2023-01-04T17:13:36.683Z,100691.97
2023-01-04T17:15:43.757Z,100689.28
2023-01-04T17:17:46.664Z,100683.91
2023-01-04T17:19:48.555Z,100685.78
2023-01-04T17:21:50.803Z,100684.06
2023-01-04T17:23:56.407Z,100681.38
2023-01-04T17:26:04.380Z,100681.44
2023-01-04T17:28:06.789Z,100672.47
2023-01-04T17:30:10.065Z,100667.03
2023-01-04T17:32:12.278Z,100676.84
2023-01-04T17:34:22.443Z,100679.59
2023-01-04T17:36:25.817Z,100675.16
2023-01-04T17:38:27.858Z,100678.78
2023-01-04T17:40:30.218Z,100673.41
2023-01-04T17:42:35.253Z,100666.28
2023-01-04T17:44:37.272Z,100671.63
2023-01-04T17:46:39.399Z,100665.34
2023-01-04T17:48:42.024Z,100664.53
2023-01-04T17:50:44.044Z,100667.13
2023-01-04T17:52:47.896Z,100664.44
2023-01-04T17:54:49.848Z,100649.19
2023-01-04T17:56:52.180Z,100655.44
2023-01-04T17:58:54.277Z,100653.72
2023-01-04T18:00:56.758Z,100659.94
2023-01-04T18:02:59.925Z,100649.19
2023-01-04T18:05:02.979Z,100652.75
2023-01-04T18:07:05.154Z,100644.69
2023-01-04T18:09:09.204Z,100638.38
2023-01-04T18:11:12.237Z,100637.50
2023-01-04T18:13:14.718Z,100632.19
2023-01-04T18:15:16.987Z,100628.69
2023-01-04T18:17:18.941Z,100624.25
2023-01-04T18:19:25.501Z,100625.06
2023-01-04T18:21:31.082Z,100625.22
2023-01-04T18:23:33.363Z,100623.31
2023-01-04T18:25:35.343Z,100624.19
2023-01-04T18:27:37.436Z,100619.81
2023-01-04T18:29:39.378Z,100621.50
2023-01-04T18:31:41.368Z,100611.63
2023-01-04T18:33:43.922Z,100622.50
2023-01-04T18:35:46.084Z,100618.91
2023-01-04T18:37:48.025Z,100622.53
2023-01-04T18:39:50.094Z,100618.03
2023-01-04T18:41:52.112Z,100625.28
2023-01-04T18:44:13.353Z,100619.97
2023-01-04T18:46:17.591Z,100619.03
2023-01-04T18:48:19.613Z,100609.31
2023-01-04T18:50:22.046Z,100613.81
2023-01-04T18:52:24.027Z,100613.81
2023-01-04T18:54:28.886Z,100612.00
2023-01-04T18:56:30.851Z,100601.13
2023-01-04T18:58:33.206Z,100604.94
2023-01-04T19:00:35.309Z,100601.47
2023-01-04T19:02:37.719Z,100598.72
2023-01-04T19:04:42.980Z,100595.31
2023-01-04T19:06:45.187Z,100591.81
2023-01-04T19:08:55.072Z,100595.38
2023-01-04T19:10:58.948Z,100583.63
2023-01-04T19:13:00.902Z,100572.75
2023-01-04T19:15:06.760Z,100571.06
2023-01-04T19:17:10.021Z,100564.84
2023-01-04T19:19:12.132Z,100573.91
2023-01-04T19:21:14.262Z,100567.66
2023-01-04T19:23:16.352Z,100574.78
2023-01-04T19:25:23.175Z,100567.66
2023-01-04T19:27:28.377Z,100567.66
2023-01-04T19:29:31.674Z,100563.25
2023-01-04T19:31:34.831Z,100574.03
2023-01-04T19:33:37.783Z,100566.00
2023-01-04T19:35:48.472Z,100570.56
2023-01-04T19:37:50.632Z,100573.19
2023-01-04T19:39:52.777Z,100566.13
2023-01-04T19:41:54.843Z,100568.16
2023-01-04T19:43:56.907Z,100562.72
2023-01-04T19:45:59.635Z,100558.22
2023-01-04T19:48:01.758Z,100557.50
2023-01-04T19:50:05.394Z,100548.56
2023-01-04T19:52:07.754Z,100544.97
2023-01-04T19:54:10.338Z,100544.97
2023-01-04T19:56:14.099Z,100542.31
2023-01-04T19:58:17.782Z,100536.97
2023-01-04T20:00:20.039Z,100549.44
2023-01-04T20:02:22.566Z,100559.25
2023-01-04T20:04:27.718Z,100552.06
2023-01-04T20:06:30.031Z,100550.38
2023-01-04T20:08:32.480Z,100542.41
2023-01-04T20:10:34.799Z,100543.22
2023-01-04T20:12:36.852Z,100535.16
2023-01-04T20:14:39.476Z,100548.56
2023-01-04T20:16:41.640Z,100543.19
2023-01-04T20:18:43.952Z,100547.75
2023-01-04T20:20:47.408Z,100546.06
2023-01-04T20:22:49.935Z,100546.91
2023-01-04T20:24:52.110Z,100549.56
2023-01-04T20:26:57.951Z,100545.94
2023-01-04T20:28:59.947Z,100542.34
2023-01-04T20:31:11.102Z,100538.72
2023-01-04T20:33:13.263Z,100527.97
2023-01-04T20:35:15.558Z,100522.56
2023-01-04T20:37:18.094Z,100522.47
2023-01-04T20:39:20.200Z,100512.69
2023-01-04T20:41:23.867Z,100510.00
2023-01-04T20:43:34.978Z,100497.50
2023-01-04T20:45:48.051Z,100501.16
2023-01-04T20:47:50.378Z,100497.47
2023-01-04T20:49:52.888Z,100501.09
2023-01-04T20:51:55.250Z,100501.00
2023-01-04T20:54:01.847Z,100492.94
2023-01-04T20:56:11.308Z,100497.44
2023-01-04T20:58:17.394Z,100499.19
2023-01-04T21:00:19.623Z,100478.53
2023-01-04T21:02:21.829Z,100482.16
2023-01-04T21:04:24.571Z,100484.84
2023-01-04T21:06:26.649Z,100483.91
2023-01-04T21:08:29.576Z,100476.66
2023-01-04T21:10:31.676Z,100473.94
2023-01-04T21:12:34.136Z,100473.03
2023-01-04T21:14:38.319Z,100464.09
2023-01-04T21:16:42.134Z,100472.22
2023-01-04T21:18:44.434Z,100471.25
2023-01-04T21:20:46.550Z,100468.53
2023-01-04T21:22:48.798Z,100460.44
2023-01-04T21:24:50.866Z,100456.03
2023-01-04T21:26:53.005Z,100450.66
2023-01-04T21:28:54.985Z,100450.66
2023-01-04T21:30:57.077Z,100448.75
2023-01-04T21:33:01.961Z,100440.59
2023-01-04T21:35:04.625Z,100434.22
2023-01-04T21:37:06.730Z,100436.13
2023-01-04T21:39:09.150Z,100427.22
2023-01-04T21:41:13.847Z,100419.25
2023-01-04T21:43:41.400Z,100423.84
2023-01-04T21:45:43.900Z,100435.22
2023-01-04T21:47:46.648Z,100434.34
2023-01-04T21:49:48.966Z,100431.78
2023-01-04T21:51:50.993Z,100438.91
2023-01-04T21:53:53.279Z,100444.34
2023-01-04T21:56:06.699Z,100448.06
2023-01-04T21:58:09.187Z,100456.91
2023-01-04T22:00:11.694Z,100450.59
2023-01-04T22:02:19.665Z,100439.88
2023-01-04T22:04:21.835Z,100442.44
2023-01-04T22:06:25.228Z,100433.38
2023-01-04T22:08:27.487Z,100423.50
2023-01-04T22:10:29.572Z,100417.28
2023-01-04T22:12:31.494Z,100418.16
2023-01-04T22:14:34.180Z,100409.22
2023-01-04T22:16:36.326Z,100404.75
2023-01-04T22:18:38.947Z,100403.94
2023-01-04T22:20:41.064Z,100396.84
2023-01-04T22:22:43.246Z,100387.03
2023-01-04T22:24:45.251Z,100379.94
2023-01-04T22:26:49.390Z,100364.63
2023-01-04T22:28:51.636Z,100362.91
2023-01-04T22:30:54.106Z,100361.25
2023-01-04T22:32:56.329Z,100354.09
2023-01-04T22:34:58.681Z,100352.25
2023-01-04T22:37:00.793Z,100344.22
2023-01-04T22:39:02.851Z,100352.34
2023-01-04T22:41:12.313Z,100350.75
2023-01-04T22:43:14.418Z,100341.63
2023-01-04T22:45:16.400Z,100344.44
2023-01-04T22:47:18.741Z,100346.38
2023-01-04T22:49:20.723Z,100349.97
2023-01-04T22:51:24.333Z,100337.41
2023-01-04T22:53:26.449Z,100340.03
2023-01-04T22:55:45.706Z,100334.75
2023-01-04T22:57:50.919Z,100317.75
2023-01-04T22:59:52.989Z,100316.03
2023-01-04T23:01:55.201Z,100302.63
2023-01-04T23:03:59.161Z,100291.09
2023-01-04T23:06:05.495Z,100285.78
2023-01-04T23:08:07.567Z,100279.53
2023-01-04T23:10:09.938Z,100281.34
2023-01-04T23:12:12.016Z,100276.91
2023-01-04T23:14:16.668Z,100275.06
2023-01-04T23:16:19.476Z,100278.66
2023-01-04T23:18:21.544Z,100280.31
2023-01-04T23:20:23.615Z,100282.16
2023-01-04T23:22:25.812Z,100293.88
2023-01-04T23:24:27.910Z,100287.63
2023-01-04T23:26:31.596Z,100279.53
2023-01-04T23:28:37.278Z,100275.00
2023-01-04T23:30:40.296Z,100275.88
2023-01-04T23:32:42.699Z,100274.09
2023-01-04T23:34:44.826Z,100271.53
2023-01-04T23:36:46.861Z,100266.28
2023-01-04T23:38:54.656Z,100257.31
2023-01-04T23:40:56.744Z,100255.56
2023-01-04T23:42:59.643Z,100257.28
2023-01-04T23:45:04.757Z,100254.53
2023-01-04T23:47:07.633Z,100262.56
2023-01-04T23:49:10.524Z,100259.09
2023-01-04T23:51:13.288Z,100251.13
2023-01-04T23:53:20.573Z,100242.16
2023-01-04T23:55:22.837Z,100242.00
2023-01-04T23:57:24.829Z,100240.16
2023-01-04T23:59:27.265Z,100248.31
